Flight Track Log - Related Links

Times and Time Zones

All times are in EDT time to prevent confusion due to time zone crossing. See the AWE9325 flight status page for this flight to view local times or setup timezone preferences in your user account.

Time Position Orientation Groundspeed Altitude Reporting Facility
EDT Latitude Longitude Course Direction KTS MPH feet Rate Location/Type
Tue 07:26:00 PM 33.9246 -118.0809 94° East  Level Estimated
Tue 07:27:00 PM 33.9185 -117.9719 94° East  Level Estimated
Tue 07:28:00 PM 33.9123 -117.8629 94° East  Level Estimated
Tue 07:29:00 PM 33.9059 -117.7540 94° East  Level Estimated
Tue 07:30:00 PM 33.8995 -117.6450 94° East  Level Estimated
Tue 07:31:00 PM 33.8929 -117.5360 94° East  Level Estimated
Tue 07:32:00 PM 33.8863 -117.4271 94° East  Level Estimated
Tue 07:33:00 PM 33.8796 -117.3182 94° East  Level Estimated
Tue 07:34:00 PM 33.8728 -117.2093 94° East  Level Estimated
Tue 07:35:00 PM 33.8659 -117.1004 94° East  Level Estimated
Tue 07:36:00 PM 33.8589 -116.9916 94° East  Level Estimated
Tue 07:37:00 PM 33.8518 -116.8827 94° East  Level Estimated
Tue 07:38:00 PM 33.8446 -116.7739 95° East  Level Estimated
Tue 07:39:00 PM 33.8373 -116.6651 95° East  Level Estimated
Tue 07:40:00 PM 33.8299 -116.5563 95° East  Level Estimated
Tue 07:41:00 PM 33.8224 -116.4475 95° East  Level Estimated
Tue 07:42:00 PM 33.8148 -116.3388 95° East  Level Estimated
Tue 07:43:00 PM 33.8071 -116.2300 95° East  Level Estimated
Tue 07:44:00 PM 33.7994 -116.1213 95° East  Level Estimated
Tue 07:45:00 PM 33.7915 -116.0126 95° East  Level Estimated
Tue 07:46:00 PM 33.7835 -115.9040 95° East  Level Estimated
Tue 07:47:00 PM 33.7755 -115.7953 95° East  Level Estimated
Tue 07:48:00 PM 33.7673 -115.6867 95° East  Level Estimated
Tue 07:49:00 PM 33.7591 -115.5781 95° East  Level Estimated
Tue 07:50:00 PM 33.7507 -115.4695 95° East  Level Estimated
Tue 07:51:00 PM 33.7423 -115.3609 95° East  Level Estimated
Tue 07:52:00 PM 33.7337 -115.2524 95° East  Level Estimated
Tue 07:53:00 PM 33.7251 -115.1439 95° East  Level Estimated
Tue 07:54:00 PM 33.7164 -115.0354 95° East  Level Estimated
Tue 07:55:00 PM 33.7076 -114.9269 96° East  Level Estimated
Tue 07:56:00 PM 33.6987 -114.8184 96° East  Level Estimated
Tue 07:57:00 PM 33.6897 -114.7100 96° East  Level Estimated
Tue 07:58:00 PM 33.6806 -114.6016 96° East  Level Estimated
Tue 07:59:00 PM 33.6714 -114.4932 96° East  Level Estimated
Tue 08:00:00 PM 33.6621 -114.3848 96° East  Level Estimated
Tue 08:01:00 PM 33.6527 -114.2765 96° East  Level Estimated
Tue 08:02:00 PM 33.6432 -114.1682 96° East  Level Estimated
Tue 08:03:00 PM 33.6336 -114.0599 96° East  Level Estimated
Tue 08:04:00 PM 33.6240 -113.9516 96° East  Level Estimated
Tue 08:05:00 PM 33.6135 -113.8355 96° East  Level Estimated
Tue 08:06:00 PM 33.6029 -113.7194 96° East  Level Estimated
Tue 08:07:00 PM 33.5922 -113.6033 96° East  Level Estimated
Tue 08:08:00 PM 33.5814 -113.4873 96° East  Level Estimated
Tue 08:09:00 PM 33.5705 -113.3713 96° East  Level Estimated
Tue 08:10:00 PM 33.5594 -113.2553 96° East  Level Estimated
Tue 08:11:00 PM 33.5483 -113.1394 97° East  Level Estimated
Tue 08:12:00 PM 33.5371 -113.0235 97° East  Level Estimated
Tue 08:13:00 PM 33.5257 -112.9076 97° East  Level Estimated
Tue 08:14:00 PM 33.5143 -112.7918 97° East  Level Estimated
Tue 08:15:00 PM 33.5027 -112.6759 97° East  Level Estimated
Tue 08:16:00 PM 33.4911 -112.5602 97° East  Level Estimated
Tue 08:17:00 PM 33.4793 -112.4444 97° East  Level Estimated
Tue 08:18:00 PM 33.4674 -112.3287 97° East  Level Estimated
Tue 08:19:00 PM 33.4554 -112.2130 97° East  Level Estimated
Tue 08:20:00 PM 33.4433 -112.0973 97° East  Level Estimated
Tue 08:21:00 PM 33.4343 -112.0116 97° East  Level Estimated
Tue 08:22:00 PM 33.4343 -112.0116 231° Southwest  Level Estimated

Login

Don't have an account? Register now (free) for customized features, flight alerts, and more!